Time;durP1;ratioP1;P1;durP2;ratioP2;P2;SDS_P1;SDS_P2;PMS_P1;PMS_P2;Temp;Humidity;BMP_temperature;BMP_pressure;BME280_temperature;BME280_humidity;BME280_pressure;Samples;Min_cycle;Max_cycle;Signal;HPM_P1;HPM_P2
2021/08/07 00:00:24;;;;;;;7.45;1.90;;;;;;;21.69;49.60;98726.06;4425849;32;20332;-70
2021/08/07 00:02:49;;;;;;;7.10;2.15;;;;;;;21.72;49.53;98727.81;4424726;32;20588;-70
2021/08/07 00:05:15;;;;;;;10.00;2.22;;;;;;;21.63;49.56;98719.78;4424371;32;20431;-70
2021/08/07 00:07:41;;;;;;;9.43;2.90;;;;;;;21.32;50.31;98727.38;4422770;32;20038;-70
2021/08/07 00:10:08;;;;;;;9.40;2.20;;;;;;;21.22;50.87;98731.28;4424606;32;20356;-70
2021/08/07 00:12:36;;;;;;;8.35;2.10;;;;;;;21.55;50.35;98722.59;4423123;32;20085;-70
2021/08/07 00:15:03;;;;;;;5.60;2.12;;;;;;;21.74;49.81;98728.06;4423637;32;20107;-70
2021/08/07 00:17:28;;;;;;;6.68;2.50;;;;;;;21.70;49.89;98728.37;4421771;32;20045;-70
2021/08/07 00:19:54;;;;;;;13.77;2.85;;;;;;;21.74;49.57;98728.06;4423457;32;20086;-70
2021/08/07 00:22:20;;;;;;;11.00;3.30;;;;;;;21.78;49.46;98724.84;4422339;32;20070;-70
2021/08/07 00:24:45;;;;;;;11.07;2.50;;;;;;;21.76;49.34;98722.53;4424752;32;20018;-70
2021/08/07 00:27:11;;;;;;;8.10;2.17;;;;;;;21.80;49.44;98719.31;4423656;32;20057;-70
2021/08/07 00:29:37;;;;;;;5.00;2.03;;;;;;;21.65;49.82;98723.59;4422596;32;20581;-70
2021/08/07 00:32:03;;;;;;;7.15;2.40;;;;;;;21.52;50.22;98711.47;4422596;32;20121;-70
2021/08/07 00:34:32;;;;;;;5.70;2.20;;;;;;;21.61;50.04;98714.59;4425583;32;20130;-70
2021/08/07 00:36:58;;;;;;;13.82;2.87;;;;;;;21.24;50.98;98720.06;4423528;32;20369;-70
2021/08/07 00:39:24;;;;;;;11.10;2.55;;;;;;;21.23;50.85;98716.41;4425417;32;20033;-70
2021/08/07 00:41:50;;;;;;;12.23;2.53;;;;;;;21.31;50.91;98714.38;4425385;32;20411;-70
2021/08/07 00:44:16;;;;;;;10.52;2.50;;;;;;;21.19;51.09;98706.66;4428686;32;20406;-70
2021/08/07 00:46:41;;;;;;;15.00;3.00;;;;;;;21.27;50.99;98713.22;4424432;32;20022;-69
2021/08/07 00:49:07;;;;;;;6.78;2.50;;;;;;;21.02;51.62;98714.91;4426721;32;20096;-70
2021/08/07 00:51:33;;;;;;;9.63;2.78;;;;;;;20.93;51.91;98703.94;4426189;32;20026;-70
2021/08/07 00:53:59;;;;;;;10.93;2.50;;;;;;;20.93;52.01;98709.66;4425810;32;20042;-70
2021/08/07 00:56:25;;;;;;;9.73;3.28;;;;;;;21.22;51.22;98688.38;4426422;32;20030;-70
2021/08/07 00:58:51;;;;;;;17.37;2.55;;;;;;;21.14;51.34;98699.75;4428853;32;20107;-70
2021/08/07 01:01:18;;;;;;;10.85;2.58;;;;;;;21.06;51.71;98698.16;4429551;32;20050;-70
2021/08/07 01:03:47;;;;;;;12.13;3.60;;;;;;;21.15;51.56;98697.66;4426902;32;20055;-70
2021/08/07 01:09:49;;;;;;;9.70;2.83;;;;;;;21.58;50.70;98700.66;3975803;32;15152812;-70
2021/08/07 01:12:40;;;;;;;15.70;3.10;;;;;;;21.58;50.70;98700.66;4435912;32;20049;-70
2021/08/07 01:15:08;;;;;;;6.85;2.62;;;;;;;21.33;50.92;98693.81;4438089;32;20101;-70
2021/08/07 01:17:37;;;;;;;10.82;2.83;;;;;;;21.46;50.60;98697.34;4438706;32;20477;-69
2021/08/07 01:20:11;;;;;;;9.13;3.10;;;;;;;21.37;50.93;98697.06;4438794;32;20033;-68
2021/08/07 01:23:00;;;;;;;10.73;2.80;;;;;;;21.53;50.48;98696.59;4439046;32;20060;-70
2021/08/07 01:25:39;;;;;;;6.60;2.40;;;;;;;21.51;50.27;98696.41;4438976;32;20475;-70
2021/08/07 01:28:06;;;;;;;13.62;2.83;;;;;;;21.64;50.10;98695.53;4438801;32;20433;-70
2021/08/07 01:30:32;;;;;;;8.60;2.65;;;;;;;21.69;49.78;98694.59;4440738;32;20048;-70
2021/08/07 01:32:59;;;;;;;11.85;2.97;;;;;;;21.71;50.04;98703.38;4438277;32;20049;-69
2021/08/07 01:35:25;;;;;;;10.55;2.47;;;;;;;21.65;49.89;98702.78;4440586;32;20072;-69
2021/08/07 01:37:52;;;;;;;6.20;2.40;;;;;;;21.78;50.02;98690.50;4438162;32;20080;-70
2021/08/07 01:40:18;;;;;;;9.57;2.50;;;;;;;21.34;51.15;98692.47;4439611;32;20081;-70
2021/08/07 01:42:43;;;;;;;8.75;2.58;;;;;;;21.42;50.84;98691.19;4439507;32;20092;-70
2021/08/07 01:45:10;;;;;;;12.02;2.35;;;;;;;21.39;50.87;98692.31;4438515;32;20525;-70
2021/08/07 01:52:51;;;;;;;10.10;2.72;;;;;;;21.99;50.07;98680.47;3985046;32;15023136;-69
2021/08/07 01:55:23;;;;;;;12.10;3.03;;;;;;;21.99;50.07;98680.47;4438521;32;20037;-69
2021/08/07 01:57:55;;;;;;;9.70;2.70;;;;;;;21.50;51.06;98683.44;4437768;32;20053;-68
2021/08/07 02:00:22;;;;;;;9.68;3.08;;;;;;;21.72;50.45;98666.94;4438957;32;20132;-68
2021/08/07 02:02:48;;;;;;;9.02;2.42;;;;;;;21.55;50.98;98673.16;4436661;32;20082;-68
2021/08/07 02:05:17;;;;;;;18.73;2.92;;;;;;;21.31;51.57;98668.63;4442149;32;20052;-68
2021/08/07 02:07:43;;;;;;;14.07;2.80;;;;;;;21.70;50.75;98671.12;4436383;32;20085;-68
2021/08/07 02:10:10;;;;;;;9.77;2.97;;;;;;;21.40;51.50;98673.06;4433448;32;20115;-68
2021/08/07 02:12:36;;;;;;;13.80;3.00;;;;;;;21.48;51.31;98665.28;4438921;32;20041;-68
2021/08/07 02:15:02;;;;;;;17.55;3.10;;;;;;;21.59;50.93;98659.25;4437914;32;20063;-68
2021/08/07 02:17:29;;;;;;;12.37;2.92;;;;;;;21.27;51.95;98668.19;4439534;32;20041;-68
2021/08/07 02:19:55;;;;;;;10.65;2.97;;;;;;;21.27;51.97;98665.31;4436376;32;20375;-68
2021/08/07 02:22:22;;;;;;;11.12;3.25;;;;;;;21.32;51.93;98666.50;4439320;32;20104;-68
2021/08/07 02:24:47;;;;;;;10.13;3.30;;;;;;;21.41;51.49;98661.03;4435329;32;20437;-68
2021/08/07 02:27:14;;;;;;;11.35;3.25;;;;;;;21.47;51.53;98652.28;4437978;32;20034;-68
2021/08/07 02:29:41;;;;;;;9.07;3.17;;;;;;;21.31;51.81;98654.31;4436243;32;20037;-68
2021/08/07 02:32:08;;;;;;;13.93;3.25;;;;;;;21.49;51.36;98649.66;4439092;32;20115;-68
2021/08/07 02:34:35;;;;;;;13.75;3.12;;;;;;;21.52;51.53;98648.53;4435483;32;20033;-68
2021/08/07 02:37:02;;;;;;;13.65;3.28;;;;;;;21.54;51.18;98646.63;4434750;32;20125;-68
2021/08/07 02:39:29;;;;;;;12.77;2.80;;;;;;;21.40;51.65;98655.88;4437434;32;20033;-68
2021/08/07 02:41:56;;;;;;;10.75;3.03;;;;;;;21.67;50.80;98651.47;4438435;32;20037;-68
2021/08/07 02:44:23;;;;;;;11.10;3.17;;;;;;;21.83;50.53;98640.88;4436220;32;20327;-68
2021/08/07 02:46:49;;;;;;;14.27;3.12;;;;;;;21.66;50.88;98642.09;4435893;32;20042;-68
2021/08/07 02:49:15;;;;;;;9.95;2.80;;;;;;;21.72;50.66;98635.47;4431554;32;20067;-68
2021/08/07 02:51:41;;;;;;;13.15;2.70;;;;;;;21.51;50.76;98636.28;4431383;32;20436;-68
2021/08/07 02:54:08;;;;;;;5.65;2.30;;;;;;;21.54;50.64;98638.03;4436919;32;20030;-68
2021/08/07 02:56:34;;;;;;;15.40;2.90;;;;;;;21.57;50.43;98639.75;4436766;32;20065;-68
2021/08/07 02:59:00;;;;;;;13.68;2.90;;;;;;;21.55;50.47;98639.59;4436274;32;20060;-68
2021/08/07 03:01:26;;;;;;;12.27;3.03;;;;;;;21.79;49.81;98635.53;4436164;32;20037;-68
2021/08/07 03:03:52;;;;;;;12.95;2.40;;;;;;;21.93;49.45;98636.16;4428339;32;20037;-68
2021/08/07 03:06:17;;;;;;;10.68;2.80;;;;;;;21.76;49.76;98641.59;4425231;32;20536;-68
2021/08/07 03:08:43;;;;;;;13.80;2.85;;;;;;;21.80;49.68;98634.19;4427951;32;20065;-68
2021/08/07 03:11:09;;;;;;;13.60;2.87;;;;;;;21.93;49.38;98633.28;4425986;32;20129;-68
2021/08/07 03:13:35;;;;;;;11.02;2.70;;;;;;;21.87;49.45;98629.84;4429721;32;20064;-68
2021/08/07 03:16:01;;;;;;;9.45;2.75;;;;;;;21.75;49.74;98625.78;4426317;32;20115;-68
2021/08/07 03:18:26;;;;;;;11.20;2.67;;;;;;;21.84;49.43;98619.50;4424991;32;20078;-68
2021/08/07 03:20:57;;;;;;;16.67;2.60;;;;;;;21.72;49.66;98615.41;4429312;32;20684;-68
2021/08/07 03:23:23;;;;;;;7.85;2.60;;;;;;;21.61;49.86;98614.44;4428292;32;20098;-68
2021/08/07 03:25:49;;;;;;;12.98;3.00;;;;;;;21.83;49.31;98613.00;4426011;32;20078;-68
2021/08/07 03:28:14;;;;;;;16.12;3.20;;;;;;;21.69;49.79;98612.34;4426835;32;20502;-68
2021/08/07 03:30:40;;;;;;;9.40;2.20;;;;;;;21.93;49.19;98608.25;4426789;32;20481;-68
2021/08/07 03:33:06;;;;;;;13.65;2.50;;;;;;;21.59;50.02;98611.34;4426432;32;20642;-68
2021/08/07 03:35:31;;;;;;;13.82;2.97;;;;;;;21.63;49.78;98606.03;4428124;32;20030;-68
2021/08/07 03:37:57;;;;;;;17.98;3.30;;;;;;;21.69;49.66;98600.91;4426547;32;20041;-68
2021/08/07 03:40:23;;;;;;;11.00;2.70;;;;;;;21.61;49.90;98608.69;4425308;32;20146;-68
2021/08/07 03:42:48;;;;;;;13.43;3.08;;;;;;;21.20;50.88;98600.25;4427052;32;20065;-68
2021/08/07 03:45:14;;;;;;;20.58;3.17;;;;;;;21.45;50.40;98600.59;4425677;32;20459;-68
2021/08/07 03:50:22;;;;;;;15.25;3.47;;;;;;;21.77;49.57;98600.19;3981730;32;15022764;-68
2021/08/07 03:52:48;;;;;;;16.85;3.80;;;;;;;21.47;50.54;98590.13;4436558;32;20064;-68
2021/08/07 03:55:14;;;;;;;12.05;3.30;;;;;;;21.35;50.64;98594.62;4433766;32;20332;-68
2021/08/07 03:57:58;;;;;;;13.20;3.97;;;;;;;21.54;50.05;98592.25;4433114;32;20045;-68
2021/08/07 04:00:27;;;;;;;13.77;3.20;;;;;;;21.46;50.21;98594.31;4437103;32;20087;-68
2021/08/07 04:02:53;;;;;;;9.07;3.00;;;;;;;21.63;49.75;98585.97;4435893;32;20041;-68
2021/08/07 04:05:18;;;;;;;13.60;3.25;;;;;;;21.44;50.45;98587.59;4435090;32;20773;-68
2021/08/07 04:07:44;;;;;;;13.82;3.10;;;;;;;21.33;50.62;98587.94;4434946;32;20556;-68
2021/08/07 04:10:11;;;;;;;10.50;3.08;;;;;;;21.19;50.91;98583.66;4430619;32;20068;-68
2021/08/07 04:12:37;;;;;;;14.57;3.25;;;;;;;21.33;50.85;98585.84;4435781;32;20387;-68
2021/08/07 04:15:04;;;;;;;13.73;3.33;;;;;;;21.40;50.72;98596.56;4433441;32;20037;-68
2021/08/07 04:17:30;;;;;;;13.73;3.40;;;;;;;21.12;51.33;98588.03;4433955;32;20026;-68
2021/08/07 04:19:55;;;;;;;12.93;3.50;;;;;;;21.29;50.78;98582.56;4434741;32;20079;-69
2021/08/07 04:22:21;;;;;;;12.43;3.58;;;;;;;21.25;50.87;98587.12;4436645;32;20037;-68
2021/08/07 04:24:47;;;;;;;12.37;3.10;;;;;;;21.05;51.52;98593.69;4434837;32;20116;-68
2021/08/07 04:27:13;;;;;;;12.15;3.10;;;;;;;20.95;51.75;98581.22;4435586;32;20029;-68
2021/08/07 04:29:40;;;;;;;14.18;3.55;;;;;;;21.15;51.34;98574.69;4434620;32;20488;-68
2021/08/07 04:32:05;;;;;;;14.30;3.30;;;;;;;20.71;52.45;98575.87;4436647;32;20072;-68
2021/08/07 04:34:31;;;;;;;11.43;3.00;;;;;;;20.57;52.44;98577.28;4433378;32;20026;-68
2021/08/07 04:36:57;;;;;;;18.73;3.35;;;;;;;20.81;52.13;98574.81;4436119;32;20081;-68
2021/08/07 04:39:22;;;;;;;11.30;3.08;;;;;;;20.74;52.04;98572.66;4435643;32;20056;-68
2021/08/07 04:41:49;;;;;;;13.38;3.28;;;;;;;20.83;51.98;98575.00;4432571;32;20479;-68
2021/08/07 04:44:14;;;;;;;17.12;3.62;;;;;;;20.68;52.31;98569.16;4437775;32;20088;-68
2021/08/07 04:46:41;;;;;;;6.60;2.50;;;;;;;20.74;52.18;98566.94;4431577;32;20086;-68
2021/08/07 04:49:06;;;;;;;13.73;3.28;;;;;;;20.88;51.68;98576.19;4434615;32;20542;-68
2021/08/07 04:51:33;;;;;;;12.95;2.75;;;;;;;21.15;51.15;98574.69;4433781;32;20036;-68
2021/08/07 04:53:59;;;;;;;11.90;3.00;;;;;;;21.13;51.21;98583.06;4436209;32;20120;-68
2021/08/07 04:56:24;;;;;;;8.95;3.42;;;;;;;20.92;51.46;98580.22;4437817;32;20069;-68
2021/08/07 04:58:50;;;;;;;11.32;2.97;;;;;;;21.12;50.90;98575.81;4436119;32;20045;-68
2021/08/07 05:01:16;;;;;;;9.93;3.67;;;;;;;21.02;51.25;98572.69;4428930;32;20448;-68
2021/08/07 05:03:42;;;;;;;7.32;2.78;;;;;;;21.08;51.06;98579.00;4420829;32;20187;-68
2021/08/07 05:06:08;;;;;;;14.70;3.03;;;;;;;21.34;50.48;98566.59;4423450;32;20086;-68
2021/08/07 05:08:37;;;;;;;15.57;3.12;;;;;;;21.40;50.31;98578.63;4420585;32;20078;-68
2021/08/07 05:11:02;;;;;;;12.90;2.90;;;;;;;21.46;50.38;98564.94;4420530;32;20025;-68
2021/08/07 05:13:28;;;;;;;13.15;3.45;;;;;;;21.34;50.57;98567.34;4423766;32;20094;-68
2021/08/07 05:15:54;;;;;;;16.12;3.00;;;;;;;21.08;51.01;98573.28;4424025;32;20098;-68
2021/08/07 05:18:19;;;;;;;15.23;2.92;;;;;;;21.17;50.93;98575.63;4423801;32;20030;-68
2021/08/07 05:20:45;;;;;;;12.50;3.60;;;;;;;21.26;50.79;98582.97;4423078;32;20077;-68
2021/08/07 05:23:11;;;;;;;11.98;2.65;;;;;;;21.63;49.91;98568.81;4427813;32;20321;-68
2021/08/07 05:25:38;;;;;;;13.82;2.67;;;;;;;21.23;50.80;98572.66;4425642;32;20076;-68
2021/08/07 05:28:05;;;;;;;15.48;3.12;;;;;;;21.63;49.66;98568.06;4422721;32;20567;-68
2021/08/07 05:30:30;;;;;;;9.30;3.17;;;;;;;21.75;49.42;98574.25;4425549;32;20034;-68
2021/08/07 05:32:56;;;;;;;11.05;2.97;;;;;;;21.69;49.46;98580.84;4426364;32;20597;-68
2021/08/07 05:35:23;;;;;;;11.05;3.37;;;;;;;21.51;49.90;98570.47;4425303;32;20080;-68
2021/08/07 05:37:49;;;;;;;10.85;2.70;;;;;;;21.66;49.59;98576.25;4427194;32;20473;-68
2021/08/07 05:40:15;;;;;;;12.77;2.65;;;;;;;21.83;49.22;98577.88;4425394;32;20121;-68
2021/08/07 05:42:41;;;;;;;15.02;3.00;;;;;;;21.84;49.19;98573.69;4424607;32;20037;-68
2021/08/07 05:45:08;;;;;;;11.05;3.40;;;;;;;21.99;48.64;98563.03;4425425;32;20092;-68
2021/08/07 05:47:34;;;;;;;10.45;3.12;;;;;;;22.01;48.59;98565.34;4422635;32;20408;-68
2021/08/07 05:49:59;;;;;;;14.68;2.70;;;;;;;22.17;48.28;98572.62;4421867;32;20115;-68
2021/08/07 05:52:27;;;;;;;16.27;2.95;;;;;;;22.34;47.59;98572.84;4423947;32;20070;-68
2021/08/07 05:54:53;;;;;;;12.60;2.37;;;;;;;22.26;47.80;98566.31;4425233;32;20060;-68
2021/08/07 05:57:18;;;;;;;11.43;2.78;;;;;;;22.22;47.60;98571.69;4419888;32;20070;-68
2021/08/07 05:59:44;;;;;;;7.15;2.40;;;;;;;21.89;48.31;98559.19;4422888;32;20017;-68
2021/08/07 06:02:10;;;;;;;10.50;2.70;;;;;;;22.21;47.68;98573.03;4423171;32;20049;-68
2021/08/07 06:04:36;;;;;;;16.50;3.22;;;;;;;22.20;47.71;98572.25;4426118;32;20143;-68
2021/08/07 06:07:02;;;;;;;11.55;2.60;;;;;;;22.35;47.30;98565.75;4423803;32;20029;-68
2021/08/07 06:09:27;;;;;;;14.95;2.87;;;;;;;22.47;46.76;98564.06;4425902;32;20441;-68
2021/08/07 06:11:53;;;;;;;11.73;2.60;;;;;;;22.34;47.10;98561.37;4421799;32;20081;-68
2021/08/07 06:14:19;;;;;;;12.52;2.75;;;;;;;22.48;46.81;98559.84;4421556;32;20100;-68
2021/08/07 06:16:45;;;;;;;7.05;2.55;;;;;;;22.23;47.38;98573.19;4425935;32;20332;-68
2021/08/07 06:19:10;;;;;;;8.43;2.30;;;;;;;22.40;46.90;98556.22;4425116;32;20144;-69
2021/08/07 06:21:36;;;;;;;15.55;3.53;;;;;;;22.46;46.87;98563.28;4423805;32;20038;-68
2021/08/07 06:24:02;;;;;;;8.05;2.35;;;;;;;22.71;46.35;98558.56;4425251;32;20033;-68
2021/08/07 06:26:28;;;;;;;12.37;2.80;;;;;;;22.86;45.89;98554.91;4421862;32;20038;-68
2021/08/07 06:28:54;;;;;;;6.68;2.58;;;;;;;23.34;44.78;98562.28;4420062;32;20088;-68
2021/08/07 06:31:20;;;;;;;9.20;2.70;;;;;;;23.07;45.38;98559.06;4425841;32;20393;-68
2021/08/07 06:33:45;;;;;;;9.60;2.60;;;;;;;23.26;45.09;98555.81;4424136;32;20527;-68
2021/08/07 06:36:11;;;;;;;9.20;1.90;;;;;;;22.93;45.39;98551.25;4424612;32;20075;-68
2021/08/07 06:38:37;;;;;;;8.68;2.72;;;;;;;22.95;45.38;98566.53;4421906;32;20042;-68
2021/08/07 06:41:03;;;;;;;8.93;2.22;;;;;;;22.99;45.26;98552.59;4422825;32;20430;-69
2021/08/07 06:43:29;;;;;;;11.35;2.45;;;;;;;23.00;45.52;98553.34;4424338;32;20496;-68
2021/08/07 06:45:54;;;;;;;11.48;2.35;;;;;;;22.86;45.46;98552.78;4423808;32;20034;-68
2021/08/07 06:48:20;;;;;;;8.27;2.30;;;;;;;22.62;46.04;98555.50;4422528;32;20073;-68
2021/08/07 06:50:46;;;;;;;9.50;2.78;;;;;;;22.78;45.73;98557.00;4424148;32;20457;-68
2021/08/07 06:53:12;;;;;;;11.23;2.37;;;;;;;23.16;44.77;98561.34;4424895;32;20033;-68
2021/08/07 06:55:38;;;;;;;8.93;2.15;;;;;;;23.21;44.49;98569.00;4424819;32;20152;-68
2021/08/07 06:58:03;;;;;;;10.63;2.17;;;;;;;23.06;44.84;98556.78;4422803;32;20073;-68
2021/08/07 07:00:29;;;;;;;8.65;2.28;;;;;;;23.37;44.42;98555.38;4419355;32;20112;-68
2021/08/07 07:02:55;;;;;;;5.00;1.73;;;;;;;23.58;43.47;98560.84;4423879;32;20080;-68
2021/08/07 07:05:21;;;;;;;7.62;2.45;;;;;;;23.25;44.27;98543.56;4421870;32;20077;-68
2021/08/07 07:07:46;;;;;;;12.88;2.42;;;;;;;23.89;43.21;98554.38;4423312;32;20649;-68
2021/08/07 07:10:14;;;;;;;9.95;2.30;;;;;;;23.87;42.89;98544.84;4421922;32;20046;-68
2021/08/07 07:12:41;;;;;;;7.75;2.25;;;;;;;23.51;43.51;98534.47;4420129;32;20038;-68
2021/08/07 07:15:07;;;;;;;15.00;3.37;;;;;;;23.95;43.00;98534.09;4424300;32;20409;-68
2021/08/07 07:17:33;;;;;;;12.18;1.75;;;;;;;23.78;43.04;98531.09;4421659;32;20041;-68
2021/08/07 07:20:00;;;;;;;10.85;2.08;;;;;;;23.69;43.24;98541.09;4422326;32;20049;-68
2021/08/07 07:22:27;;;;;;;9.90;2.22;;;;;;;24.02;42.80;98533.28;4418678;32;20111;-68
2021/08/07 07:24:52;;;;;;;8.68;2.78;;;;;;;23.73;43.05;98540.69;4422813;32;20030;-68
2021/08/07 07:27:18;;;;;;;11.90;2.47;;;;;;;23.71;43.08;98552.00;4419525;32;20100;-68
2021/08/07 07:29:45;;;;;;;4.60;1.45;;;;;;;23.36;43.42;98551.00;4422229;32;20409;-68
2021/08/07 07:32:10;;;;;;;7.28;2.20;;;;;;;23.40;43.91;98545.63;4419908;32;20466;-68
2021/08/07 07:34:37;;;;;;;12.52;2.50;;;;;;;23.36;43.86;98551.78;4425161;32;20041;-68
2021/08/07 07:37:04;;;;;;;6.68;1.75;;;;;;;23.91;42.92;98550.94;4420349;32;20461;-68
2021/08/07 07:39:30;;;;;;;8.85;2.03;;;;;;;23.93;43.16;98556.88;4426240;32;20113;-68
2021/08/07 07:41:55;;;;;;;8.43;2.62;;;;;;;23.42;43.61;98560.16;4418299;32;20095;-68
2021/08/07 07:44:21;;;;;;;6.35;1.85;;;;;;;24.06;42.32;98554.53;4424569;32;20034;-68
2021/08/07 07:46:47;;;;;;;11.70;2.50;;;;;;;23.79;42.66;98556.38;4421491;32;20073;-68
2021/08/07 07:49:12;;;;;;;9.30;2.65;;;;;;;23.91;42.51;98563.19;4420410;32;20328;-68
2021/08/07 07:51:38;;;;;;;5.82;2.10;;;;;;;24.26;41.92;98567.78;4422233;32;20089;-68
2021/08/07 07:54:04;;;;;;;5.00;1.58;;;;;;;24.47;41.15;98553.84;4418919;32;20481;-68
2021/08/07 07:56:30;;;;;;;6.10;1.90;;;;;;;24.42;41.04;98563.47;4424450;32;20096;-68
2021/08/07 07:58:56;;;;;;;8.70;1.87;;;;;;;24.98;40.25;98574.13;4419727;32;20093;-68
2021/08/07 08:01:21;;;;;;;10.25;2.17;;;;;;;25.02;40.24;98562.97;4424421;32;20491;-68
2021/08/07 08:03:47;;;;;;;8.68;1.60;;;;;;;24.95;40.23;98560.91;4427215;32;20502;-68
2021/08/07 08:06:13;;;;;;;7.65;1.92;;;;;;;24.60;40.36;98567.91;4425260;32;20021;-68
2021/08/07 08:08:39;;;;;;;8.73;1.85;;;;;;;24.66;40.82;98565.59;4424473;32;20148;-69
2021/08/07 08:11:05;;;;;;;7.07;1.70;;;;;;;25.33;39.47;98569.22;4422362;32;20030;-68
2021/08/07 08:13:31;;;;;;;3.75;1.12;;;;;;;25.14;39.79;98574.75;4422432;32;20428;-69
2021/08/07 08:15:57;;;;;;;4.78;1.75;;;;;;;25.34;39.48;98571.50;4423878;32;20495;-68
2021/08/07 08:18:23;;;;;;;4.12;1.62;;;;;;;25.52;38.94;98574.38;4421431;32;20077;-68
2021/08/07 08:20:50;;;;;;;9.10;1.83;;;;;;;24.90;39.83;98572.69;4425663;32;20046;-68
2021/08/07 08:23:16;;;;;;;4.43;1.70;;;;;;;24.92;39.28;98570.00;4420371;32;20116;-68
2021/08/07 08:25:42;;;;;;;5.78;1.62;;;;;;;24.72;40.05;98565.34;4420615;32;20030;-68
2021/08/07 08:28:08;;;;;;;5.10;1.33;;;;;;;25.20;39.26;98570.28;4422366;32;20057;-68
2021/08/07 08:30:36;;;;;;;5.47;1.80;;;;;;;25.12;39.36;98568.81;4422772;32;20087;-68
2021/08/07 08:33:02;;;;;;;10.13;1.70;;;;;;;25.05;39.51;98561.81;4422693;32;20042;-69
2021/08/07 08:35:28;;;;;;;6.43;1.67;;;;;;;25.31;39.32;98564.03;4424350;32;20098;-68
2021/08/07 08:37:54;;;;;;;4.85;1.35;;;;;;;25.64;38.51;98561.72;4427192;32;20379;-69
2021/08/07 08:40:20;;;;;;;10.13;1.30;;;;;;;25.92;37.83;98571.97;4428528;32;20060;-68
2021/08/07 08:42:46;;;;;;;9.52;1.60;;;;;;;26.03;37.84;98554.16;4422101;32;20515;-68
2021/08/07 08:45:12;;;;;;;6.05;1.55;;;;;;;25.96;37.49;98564.41;4425495;32;20029;-68
2021/08/07 08:47:41;;;;;;;7.45;1.50;;;;;;;25.83;37.99;98561.88;4423163;32;20467;-68
2021/08/07 08:50:08;;;;;;;6.25;1.45;;;;;;;26.13;37.50;98572.25;4424953;32;20486;-68
2021/08/07 08:52:37;;;;;;;7.15;1.62;;;;;;;25.89;37.74;98556.59;4423113;32;20047;-68
2021/08/07 08:55:03;;;;;;;7.93;1.80;;;;;;;26.21;37.16;98558.50;4427607;32;20068;-68
2021/08/07 08:57:29;;;;;;;5.82;1.85;;;;;;;26.36;37.27;98552.50;4421385;32;20065;-69
2021/08/07 08:59:55;;;;;;;7.70;1.25;;;;;;;26.90;36.50;98545.28;4424650;32;20042;-68
2021/08/07 09:02:21;;;;;;;10.23;1.73;;;;;;;27.28;35.82;98539.59;4424163;32;20090;-68
2021/08/07 09:04:47;;;;;;;8.85;1.35;;;;;;;26.78;36.57;98547.22;4427365;32;20053;-69
2021/08/07 09:07:15;;;;;;;8.00;1.40;;;;;;;26.43;37.09;98555.28;4425809;32;20098;-68
2021/08/07 09:09:44;;;;;;;5.80;1.30;;;;;;;26.63;36.76;98547.50;4425803;32;20042;-68
2021/08/07 09:12:11;;;;;;;5.70;1.37;;;;;;;27.09;36.02;98545.34;4425676;32;20076;-69
2021/08/07 09:14:39;;;;;;;8.27;1.70;;;;;;;27.33;35.61;98532.75;4427086;32;20045;-69
2021/08/07 09:17:08;;;;;;;4.55;1.37;;;;;;;28.01;34.49;98534.25;4422319;32;20039;-69
2021/08/07 09:27:42;;;;;;;4.90;1.08;;;;;;;26.91;35.98;98523.72;4002900;31;15019708;-69
2021/08/07 09:30:26;;;;;;;7.10;1.83;;;;;;;26.91;35.98;98523.72;4466545;32;20139;-68
2021/08/07 09:33:19;;;;;;;9.82;1.62;;;;;;;26.86;36.01;98511.09;4461967;32;20774;-68
2021/08/07 09:35:46;;;;;;;5.37;1.25;;;;;;;27.37;35.19;98512.09;4464221;32;20060;-69
2021/08/07 09:43:31;;;;;;;2.67;1.48;;;;;;;27.46;35.14;98528.66;3982238;32;15022376;-68
2021/08/07 09:46:07;;;;;;;6.65;1.75;;;;;;;27.46;35.14;98528.66;4434381;32;20529;-68
2021/08/07 09:48:38;;;;;;;8.02;1.62;;;;;;;26.96;35.65;98505.34;4435187;32;20030;-68
2021/08/07 09:51:26;;;;;;;4.15;1.62;;;;;;;27.73;34.06;98521.31;4437221;32;20056;-68
2021/08/07 09:54:03;;;;;;;4.75;1.35;;;;;;;28.19;33.69;98507.41;4437339;32;20068;-68
2021/08/07 09:59:26;;;;;;;6.20;1.70;;;;;;;28.12;32.82;98496.78;3983762;32;15023837;-69
2021/08/07 10:01:54;;;;;;;3.87;1.10;;;;;;;27.90;33.40;98494.41;4438728;32;20025;-69
2021/08/07 10:04:21;;;;;;;7.75;1.50;;;;;;;27.28;34.64;98495.50;4434522;32;20150;-69
2021/08/07 10:06:48;;;;;;;5.37;1.75;;;;;;;27.56;33.73;98494.72;4437756;32;20030;-69
2021/08/07 10:09:14;;;;;;;4.55;1.40;;;;;;;27.49;33.88;98499.31;4437921;32;20374;-69
2021/08/07 10:12:01;;;;;;;6.28;1.33;;;;;;;27.81;33.61;98490.13;4437528;32;20397;-69
2021/08/07 10:14:26;;;;;;;6.70;1.33;;;;;;;28.06;33.21;98495.56;4437173;32;20436;-69
2021/08/07 10:16:52;;;;;;;6.37;1.40;;;;;;;28.52;32.53;98493.91;4436322;32;20120;-69
2021/08/07 10:19:19;;;;;;;6.53;1.10;;;;;;;28.97;31.71;98491.94;4435128;32;20073;-69
2021/08/07 10:21:47;;;;;;;5.55;1.30;;;;;;;29.39;30.92;98494.09;4435491;32;20094;-69
2021/08/07 10:24:13;;;;;;;3.80;1.12;;;;;;;29.65;30.45;98490.81;4434033;32;20026;-69
2021/08/07 10:26:39;;;;;;;4.40;1.20;;;;;;;29.43;30.25;98494.34;4438096;32;20475;-69
2021/08/07 10:29:06;;;;;;;4.37;0.93;;;;;;;29.52;30.10;98499.31;4437586;32;20029;-69
2021/08/07 10:31:33;;;;;;;7.15;1.40;;;;;;;29.08;30.62;98485.47;4434090;32;20369;-69
2021/08/07 10:34:04;;;;;;;5.20;1.30;;;;;;;29.68;29.92;98488.81;4432645;32;20088;-69
2021/08/07 10:36:31;;;;;;;4.22;1.10;;;;;;;29.72;29.68;98494.88;4433031;32;20119;-69
2021/08/07 10:39:01;;;;;;;4.85;1.00;;;;;;;29.42;29.94;98498.66;4432421;32;20041;-69
2021/08/07 10:41:29;;;;;;;4.12;1.23;;;;;;;29.02;30.65;98490.81;4437998;32;20155;-69
2021/08/07 10:43:56;;;;;;;4.78;1.30;;;;;;;28.90;30.90;98484.97;4432557;32;20033;-69
2021/08/07 10:46:22;;;;;;;6.07;1.10;;;;;;;28.86;31.33;98486.81;4435942;32;20060;-68
2021/08/07 10:48:51;;;;;;;3.25;1.00;;;;;;;28.29;31.83;98487.13;4437041;32;20073;-69
2021/08/07 11:01:47;;;;;;;3.67;1.00;;;;;;;29.27;30.51;98481.69;3983481;32;15024526;-69
2021/08/07 11:06:58;;;;;;;4.82;1.17;;;;;;;29.67;30.12;98478.59;3980744;32;15027843;-68
2021/08/07 11:25:24;;;;;;;4.15;1.08;;;;;;;30.38;28.81;98468.03;3990766;32;15025905;-69
2021/08/07 11:30:41;;;;;;;5.70;1.83;;;;;;;30.21;28.54;98462.59;4003197;31;15017067;-69
2021/08/07 11:38:23;;;;;;;4.93;1.45;;;;;;;30.09;28.47;98469.72;3983782;32;15024368;-68
2021/08/07 11:46:10;;;;;;;4.62;1.00;;;;;;;28.91;30.39;98468.37;3995926;31;15017171;-69
2021/08/07 11:48:39;;;;;;;3.42;0.80;;;;;;;28.91;30.39;98468.37;4453858;32;20063;-69
2021/08/07 11:51:08;;;;;;;8.23;1.70;;;;;;;28.49;30.72;98466.19;4440582;32;20044;-69
2021/08/07 11:53:38;;;;;;;3.17;1.20;;;;;;;28.78;30.55;98463.88;4454169;32;20421;-69
2021/08/07 11:56:07;;;;;;;3.05;1.25;;;;;;;29.23;29.72;98464.78;4454734;32;20100;-69
2021/08/07 11:58:41;;;;;;;4.57;1.00;;;;;;;29.26;29.46;98457.00;4455102;32;20071;-69
2021/08/07 12:01:07;;;;;;;5.65;1.27;;;;;;;29.55;29.10;98466.94;4454675;32;20114;-69
2021/08/07 12:03:50;;;;;;;3.75;1.00;;;;;;;29.16;29.49;98465.00;4455393;32;20096;-69
2021/08/07 12:06:19;;;;;;;2.47;0.90;;;;;;;29.91;28.72;98454.09;4454841;32;20068;-69
2021/08/07 12:08:45;;;;;;;4.70;1.17;;;;;;;29.96;28.43;98455.84;4453486;32;20053;-69
2021/08/07 12:11:13;;;;;;;6.72;1.30;;;;;;;30.01;28.60;98454.72;4454707;32;20104;-69
2021/08/07 12:13:41;;;;;;;2.78;1.10;;;;;;;29.71;29.07;98464.38;4454135;32;20029;-69
2021/08/07 12:16:11;;;;;;;4.40;1.30;;;;;;;29.28;30.37;98445.53;4441929;32;20049;-69
2021/08/07 12:24:07;;;;;;;6.35;1.10;;;;;;;29.16;30.56;98451.28;3983555;32;15025099;-67
2021/08/07 12:29:20;;;;;;;5.62;1.25;;;;;;;28.88;32.13;98446.44;3986635;32;15022505;-68
2021/08/07 12:39:53;;;;;;;6.32;1.15;;;;;;;27.86;35.37;98456.53;3980068;32;15024069;-70
2021/08/07 12:47:33;;;;;;;5.10;1.62;;;;;;;27.59;37.90;98450.19;4000639;31;15016713;-68
2021/08/07 12:50:19;;;;;;;5.10;1.20;;;;;;;27.59;37.90;98450.19;4463788;32;20080;-68
2021/08/07 12:53:05;;;;;;;4.05;1.40;;;;;;;26.87;38.11;98469.31;4460619;32;20080;-68
2021/08/07 12:55:33;;;;;;;3.92;1.40;;;;;;;27.25;39.60;98465.72;4463428;32;20068;-68
2021/08/07 12:58:16;;;;;;;3.05;1.10;;;;;;;26.99;39.75;98455.81;4462347;32;20093;-69
2021/08/07 13:00:42;;;;;;;7.18;1.60;;;;;;;27.47;38.62;98460.84;4464083;32;20473;-69